VIDP

Indira Gandhi International Airport

New Delhi, India
TAF VIDP 202300Z 2100/2206 35005KT 2000 DU FEW100 BECMG 2103/2105 32008KT 3500 DU FEW040 SCT100 TEMPO 2108/2113 29010G20KT 2500 -TS BLDU SCT040 FEW040CB BKN100 BECMG 2115/2117 34010KT 3000 DU SCT100 BECMG 2200/2202 2500 DU FEW040 BECMG 2203/2205 29010KT 3500 DU
Issued Valid From Valid To
Apr-20 @ 23:00 UTC
(5 hours ago)
Apr-21 @ 00:00 UTC
(4 hours ago)
Apr-22 @ 06:00 UTC
(-1 days ago)
Expired Click to View Apr-21 @ 00:00 to Apr-21 @ 03:00
TAF VIDP 202300Z 2100/2206 35005KT 2000 DU FEW100
Wind Visibility Clouds Conditions
350° at 5 knots 1,996 meters
  • Few at 10,000' AGL
  • Dust
Becoming Apr-21 @ 03:00 to Apr-21 @ 15:00
BECMG 2103/2105 32008KT 3500 DU FEW040 SCT100
Wind Visibility Clouds Conditions
320° at 8 knots 3,492 meters
  • Few at 4,000' AGL
  • Scattered at 10,000' AGL
  • Dust
Temporary Apr-21 @ 08:00 to Apr-21 @ 13:00
TEMPO 2108/2113 29010G20KT 2500 -TS BLDU SCT040 FEW040CB BKN100
Wind Visibility Clouds Conditions
290° at 10 knots
 Gusting to 20 knots
2,494 meters
  • Scattered at 4,000' AGL
  • Few at 4,000' AGL
  • Broken at 10,000' AGL
  • Light Thunderstorm
  • Blowing
  • Dust
Becoming Apr-21 @ 15:00 to Apr-22 @ 00:00
BECMG 2115/2117 34010KT 3000 DU SCT100
Wind Visibility Clouds Conditions
340° at 10 knots 2,993 meters
  • Scattered at 10,000' AGL
  • Dust
Becoming Apr-22 @ 00:00 to Apr-22 @ 03:00
BECMG 2200/2202 2500 DU FEW040
Wind Visibility Clouds Conditions
340° at 10 knots 2,494 meters
  • Few at 4,000' AGL
  • Dust
Becoming Apr-22 @ 03:00 to Apr-22 @ 06:00
BECMG 2203/2205 29010KT 3500 DU
Wind Visibility Clouds Conditions
290° at 10 knots 3,492 meters
  • Few at 4,000' AGL
  • Dust
TAF VIDP 202300Z 2100/2206 35005KT 2000 DU FEW100 BECMG 2103/2105 32008KT 3500 DU FEW040 SCT100 TEMPO 2108/2113 29010G20KT 2500 -TS BLDU SCT040 FEW040CB BKN100 BECMG 2115/2117 34010KT 3000 DU SCT100 BECMG 2200/2202 2500 DU FEW040 BECMG 2203/2205 29010KT 3500 DU
Issued Apr-20 @ 23:00 UTC
(5 hours ago)
Valid From Apr-21 @ 00:00 UTC
(4 hours ago)
Valid To Apr-22 @ 06:00 UTC
(-1 days ago)
Apr-21 @ 00:00 - Apr-21 @ 03:00
Wind Visibility
350° at 5 knots 1,996 meters
Clouds
  • Few at 10,000' AGL
Conditions
  • Dust
Becoming Apr-21 @ 03:00 - Apr-21 @ 15:00
Wind Visibility
320° at 8 knots 3,492 meters
Clouds
  • Few at 4,000' AGL
  • Scattered at 10,000' AGL
Conditions
  • Dust
Temporary Apr-21 @ 08:00 - Apr-21 @ 13:00
Wind Visibility
290° at 10 knots
 Gusting to 20 knots
2,494 meters
Clouds
  • Scattered at 4,000' AGL
  • Few at 4,000' AGL
  • Broken at 10,000' AGL
Conditions
  • Light Thunderstorm
  • Blowing
  • Dust
Becoming Apr-21 @ 15:00 - Apr-22 @ 00:00
Wind Visibility
340° at 10 knots 2,993 meters
Clouds
  • Scattered at 10,000' AGL
Conditions
  • Dust
Becoming Apr-22 @ 00:00 - Apr-22 @ 03:00
Wind Visibility
340° at 10 knots 2,494 meters
Clouds
  • Few at 4,000' AGL
Conditions
  • Dust
Becoming Apr-22 @ 03:00 - Apr-22 @ 06:00
Wind Visibility
290° at 10 knots 3,492 meters
Clouds
  • Few at 4,000' AGL
Conditions
  • Dust